Time;durP1;ratioP1;P1;durP2;ratioP2;P2;SDS_P1;SDS_P2;PMS_P1;PMS_P2;Temp;Humidity;BMP_temperature;BMP_pressure;BME280_temperature;BME280_humidity;BME280_pressure;Samples;Min_cycle;Max_cycle;Signal;HPM_P1;HPM_P2
2024/04/08 00:01:41;;;;;;;;;;;16.30;99.90;;;;;;6686011;88;20052;-79
2024/04/08 00:11:42;;;;;;;;;;;15.70;99.90;;;;;;6682170;89;20077;-79
2024/04/08 00:21:42;;;;;;;;;;;15.10;99.90;;;;;;6687108;88;20103;-79
2024/04/08 00:31:43;;;;;;;;;;;14.90;99.90;;;;;;6694452;88;20064;-78
2024/04/08 00:41:43;;;;;;;;;;;14.70;99.90;;;;;;6700312;88;20506;-79
2024/04/08 00:51:44;;;;;;;;;;;14.50;99.90;;;;;;6701842;88;20076;-79
2024/04/08 01:01:44;;;;;;;;;;;14.50;99.90;;;;;;6694262;88;20064;-78
2024/04/08 01:11:45;;;;;;;;;;;14.20;99.90;;;;;;6707146;88;20168;-79
2024/04/08 01:21:46;;;;;;;;;;;14.00;99.90;;;;;;6687001;88;20131;-78
2024/04/08 01:31:46;;;;;;;;;;;13.90;99.90;;;;;;6684969;88;20187;-77
2024/04/08 01:41:46;;;;;;;;;;;13.80;99.90;;;;;;6684593;88;20826;-78
2024/04/08 01:51:47;;;;;;;;;;;13.70;99.90;;;;;;6686469;88;20063;-78
2024/04/08 02:01:47;;;;;;;;;;;13.80;99.90;;;;;;6686767;88;20055;-78
2024/04/08 02:11:48;;;;;;;;;;;13.80;99.90;;;;;;6686036;88;20084;-77
2024/04/08 02:21:48;;;;;;;;;;;13.70;99.90;;;;;;6686358;88;20048;-78
2024/04/08 02:31:49;;;;;;;;;;;13.60;99.90;;;;;;6688431;88;20611;-77
2024/04/08 02:41:49;;;;;;;;;;;13.60;99.90;;;;;;6694179;88;20145;-79
2024/04/08 02:51:50;;;;;;;;;;;13.70;99.90;;;;;;6680177;88;20609;-78
2024/04/08 03:01:50;;;;;;;;;;;13.60;99.90;;;;;;6680100;88;20248;-78
2024/04/08 03:11:50;;;;;;;;;;;13.40;99.90;;;;;;6679328;88;20519;-78
2024/04/08 03:21:51;;;;;;;;;;;13.40;99.90;;;;;;6672743;89;20076;-79
2024/04/08 03:31:52;;;;;;;;;;;13.30;99.90;;;;;;6678933;88;20143;-78
2024/04/08 03:41:53;;;;;;;;;;;13.20;99.90;;;;;;6681485;88;20511;-77
2024/04/08 03:51:53;;;;;;;;;;;13.00;99.90;;;;;;6682059;88;20554;-77
2024/04/08 04:01:54;;;;;;;;;;;13.00;99.90;;;;;;6682178;88;20050;-77
2024/04/08 04:11:54;;;;;;;;;;;12.90;99.90;;;;;;6670803;88;20518;-77
2024/04/08 04:21:55;;;;;;;;;;;12.80;99.90;;;;;;6676617;89;20536;-77
2024/04/08 04:31:55;;;;;;;;;;;12.90;99.90;;;;;;6680794;88;20074;-78
2024/04/08 04:41:55;;;;;;;;;;;12.70;99.90;;;;;;6680885;88;20071;-78
2024/04/08 04:51:56;;;;;;;;;;;12.60;99.90;;;;;;6681417;88;20155;-77
2024/04/08 05:01:56;;;;;;;;;;;12.60;99.90;;;;;;6681246;88;20225;-77
2024/04/08 05:11:57;;;;;;;;;;;12.50;99.90;;;;;;6691533;88;20557;-77
2024/04/08 05:21:58;;;;;;;;;;;12.60;99.90;;;;;;6675082;89;20635;-77
2024/04/08 05:31:58;;;;;;;;;;;12.70;99.90;;;;;;6699793;88;20115;-76
2024/04/08 05:42:00;;;;;;;;;;;12.60;99.90;;;;;;6693656;88;20110;-78
2024/04/08 05:52:00;;;;;;;;;;;12.80;99.90;;;;;;6683954;88;20060;-76
2024/04/08 06:02:01;;;;;;;;;;;13.00;99.90;;;;;;6698791;88;20907;-76
2024/04/08 06:12:02;;;;;;;;;;;13.10;99.90;;;;;;6690038;88;20068;-76
2024/04/08 06:22:02;;;;;;;;;;;13.20;99.90;;;;;;6683677;88;20064;-77
2024/04/08 06:32:03;;;;;;;;;;;13.60;99.90;;;;;;6682082;88;20056;-76
2024/04/08 06:42:04;;;;;;;;;;;13.60;99.90;;;;;;6670836;88;20490;-78
2024/04/08 06:52:04;;;;;;;;;;;13.70;99.90;;;;;;6661892;89;20134;-77
2024/04/08 07:02:05;;;;;;;;;;;14.20;99.90;;;;;;6678527;88;20053;-76
2024/04/08 07:12:06;;;;;;;;;;;14.30;99.90;;;;;;6681133;88;20063;-76
2024/04/08 07:22:07;;;;;;;;;;;14.40;99.90;;;;;;6684490;88;20068;-75
2024/04/08 07:32:08;;;;;;;;;;;14.60;99.90;;;;;;6699982;88;20171;-77
2024/04/08 07:42:08;;;;;;;;;;;14.70;99.90;;;;;;6692181;88;20662;-76
2024/04/08 07:52:10;;;;;;;;;;;15.10;99.90;;;;;;6685407;88;20101;-77
2024/04/08 08:02:11;;;;;;;;;;;15.50;99.90;;;;;;6684287;88;20159;-77
2024/04/08 08:12:32;;;;;;;;;;;15.90;99.90;;;;;;6702789;77;20134;-80
2024/04/08 08:22:32;;;;;;;;;;;16.00;99.90;;;;;;6661361;88;20178;-79
2024/04/08 08:32:33;;;;;;;;;;;16.60;99.90;;;;;;6668102;88;20246;-79
2024/04/08 08:42:33;;;;;;;;;;;17.30;99.90;;;;;;6653092;88;20108;-78
2024/04/08 08:52:34;;;;;;;;;;;17.40;99.90;;;;;;6626349;88;20063;-79
2024/04/08 09:02:34;;;;;;;;;;;17.50;99.90;;;;;;6661823;88;20431;-79
2024/04/08 09:12:40;;;;;;;;;;;18.50;99.90;;;;;;6642029;88;20162;-79
2024/04/08 09:22:40;;;;;;;;;;;19.30;99.90;;;;;;6653621;88;20060;-79
2024/04/08 09:32:41;;;;;;;;;;;20.90;99.90;;;;;;6623533;88;20553;-79
2024/04/08 09:42:42;;;;;;;;;;;21.60;99.90;;;;;;6639944;88;20062;-80
2024/04/08 09:52:42;;;;;;;;;;;22.50;99.90;;;;;;6661632;88;20205;-79
2024/04/08 10:02:43;;;;;;;;;;;23.20;99.90;;;;;;6645209;88;20083;-80
2024/04/08 10:12:44;;;;;;;;;;;23.60;99.90;;;;;;6649286;88;20496;-81
2024/04/08 10:22:45;;;;;;;;;;;23.70;99.90;;;;;;6640151;88;20056;-80
2024/04/08 10:32:45;;;;;;;;;;;24.30;99.90;;;;;;6654283;88;20047;-80
2024/04/08 10:42:46;;;;;;;;;;;25.00;99.90;;;;;;6635817;88;20641;-80
2024/04/08 10:52:48;;;;;;;;;;;25.50;99.90;;;;;;6632475;88;21166;-81
2024/04/08 11:02:50;;;;;;;;;;;24.60;99.90;;;;;;6699230;88;20075;-81
2024/04/08 11:12:51;;;;;;;;;;;22.10;99.90;;;;;;6635944;89;20188;-82
2024/04/08 11:22:51;;;;;;;;;;;23.00;99.90;;;;;;6622759;90;20054;-82
2024/04/08 11:32:52;;;;;;;;;;;23.40;99.90;;;;;;6640216;88;20075;-81
2024/04/08 11:42:53;;;;;;;;;;;22.80;99.90;;;;;;6635638;89;20598;-81
2024/04/08 11:52:53;;;;;;;;;;;23.90;99.90;;;;;;6639343;88;20074;-82
2024/04/08 12:02:55;;;;;;;;;;;23.80;99.90;;;;;;6632568;89;20059;-81
2024/04/08 12:13:37;;;;;;;;;;;25.60;99.90;;;;;;6643033;88;20217;-84
2024/04/08 12:23:38;;;;;;;;;;;25.80;99.90;;;;;;6627553;88;20075;-84
2024/04/08 12:33:38;;;;;;;;;;;25.30;99.90;;;;;;6624434;89;20039;-84
2024/04/08 12:43:41;;;;;;;;;;;25.50;99.90;;;;;;6619880;89;20064;-84
2024/04/08 12:53:43;;;;;;;;;;;26.70;99.90;;;;;;6624927;90;20088;-86
2024/04/08 13:03:44;;;;;;;;;;;27.80;98.40;;;;;;6660559;88;20058;-84
2024/04/08 13:13:44;;;;;;;;;;;27.20;98.10;;;;;;6650908;88;20059;-84
2024/04/08 13:23:45;;;;;;;;;;;27.00;98.10;;;;;;6640123;88;20054;-84
2024/04/08 13:33:45;;;;;;;;;;;25.80;96.30;;;;;;6655197;88;20122;-84
2024/04/08 13:43:46;;;;;;;;;;;25.50;97.40;;;;;;6657422;88;20046;-84
2024/04/08 13:53:46;;;;;;;;;;;25.50;97.00;;;;;;6636580;89;20059;-84
2024/04/08 14:03:49;;;;;;;;;;;26.40;97.40;;;;;;6635585;89;20088;-84
2024/04/08 14:13:49;;;;;;;;;;;27.00;96.90;;;;;;6656410;77;20054;-76
2024/04/08 14:23:49;;;;;;;;;;;26.10;96.50;;;;;;6649627;88;20124;-77
2024/04/08 14:33:50;;;;;;;;;;;26.80;96.10;;;;;;6638605;88;20241;-76
2024/04/08 14:43:51;;;;;;;;;;;27.90;95.30;;;;;;6628672;88;20066;-76
2024/04/08 14:53:52;;;;;;;;;;;28.20;95.20;;;;;;6655173;88;20075;-76
2024/04/08 15:03:53;;;;;;;;;;;27.70;94.70;;;;;;6641680;88;20454;-77
2024/04/08 15:13:53;;;;;;;;;;;26.80;95.10;;;;;;6653726;88;20086;-77
2024/04/08 15:23:54;;;;;;;;;;;26.70;96.60;;;;;;6645584;88;20063;-77
2024/04/08 15:33:54;;;;;;;;;;;27.30;95.10;;;;;;6640169;88;20097;-76
2024/04/08 15:43:55;;;;;;;;;;;26.70;94.80;;;;;;6630993;88;20146;-78
2024/04/08 15:53:55;;;;;;;;;;;26.50;94.40;;;;;;6635797;88;20221;-77
2024/04/08 16:03:56;;;;;;;;;;;26.50;94.40;;;;;;6641342;88;20282;-78
2024/04/08 16:13:56;;;;;;;;;;;26.50;94.40;;;;;;6654135;88;20119;-78
2024/04/08 16:23:57;;;;;;;;;;;26.00;93.80;;;;;;6645183;88;20157;-79
2024/04/08 16:33:57;;;;;;;;;;;25.90;94.50;;;;;;6639972;88;20517;-79
2024/04/08 16:44:00;;;;;;;;;;;25.70;94.30;;;;;;6642996;88;20065;-81
2024/04/08 16:54:00;;;;;;;;;;;25.30;94.90;;;;;;6655550;88;20105;-80
2024/04/08 17:04:03;;;;;;;;;;;25.00;94.60;;;;;;6655120;88;20177;-79
2024/04/08 17:14:03;;;;;;;;;;;24.80;95.00;;;;;;6652735;88;20443;-80
2024/04/08 17:24:05;;;;;;;;;;;24.40;95.50;;;;;;6643680;88;20070;-77
2024/04/08 17:34:05;;;;;;;;;;;24.00;95.90;;;;;;6625113;88;20095;-77
2024/04/08 17:44:06;;;;;;;;;;;23.80;96.20;;;;;;6635630;88;20091;-77
2024/04/08 17:54:07;;;;;;;;;;;23.60;96.50;;;;;;6656980;88;20636;-80
2024/04/08 18:04:07;;;;;;;;;;;23.40;96.70;;;;;;6644339;88;20082;-80
2024/04/08 18:14:08;;;;;;;;;;;23.10;96.70;;;;;;6652902;88;20075;-78
2024/04/08 18:24:08;;;;;;;;;;;23.00;96.80;;;;;;6631187;88;20075;-77
2024/04/08 18:34:08;;;;;;;;;;;22.80;97.70;;;;;;6635542;88;20066;-77
2024/04/08 18:44:09;;;;;;;;;;;22.60;98.20;;;;;;6648547;88;20055;-77
2024/04/08 18:54:09;;;;;;;;;;;22.20;99.40;;;;;;6633665;88;20501;-78
2024/04/08 19:04:10;;;;;;;;;;;22.00;99.50;;;;;;6629319;88;20075;-77
2024/04/08 19:14:10;;;;;;;;;;;22.00;99.10;;;;;;6633822;88;20074;-78
2024/04/08 19:24:11;;;;;;;;;;;21.60;99.90;;;;;;6651651;88;20063;-77
2024/04/08 19:34:12;;;;;;;;;;;21.20;99.90;;;;;;6650090;88;20142;-78
2024/04/08 19:44:12;;;;;;;;;;;21.10;99.90;;;;;;6659657;88;20063;-78
2024/04/08 19:54:13;;;;;;;;;;;21.40;99.70;;;;;;6642537;88;20091;-77
2024/04/08 20:04:13;;;;;;;;;;;21.40;98.90;;;;;;6641878;88;20080;-78
2024/04/08 20:14:16;;;;;;;;;;;21.60;98.30;;;;;;6653338;88;20055;-78
2024/04/08 20:24:16;;;;;;;;;;;21.80;97.60;;;;;;6695417;77;20070;-80
2024/04/08 20:34:16;;;;;;;;;;;21.80;97.70;;;;;;6653097;89;20483;-79
2024/04/08 20:44:17;;;;;;;;;;;21.70;97.70;;;;;;6654239;89;20111;-81
2024/04/08 20:54:17;;;;;;;;;;;21.20;98.60;;;;;;6665441;88;20065;-80
2024/04/08 21:04:18;;;;;;;;;;;20.90;99.40;;;;;;6660544;88;20076;-80
2024/04/08 21:14:18;;;;;;;;;;;20.60;99.90;;;;;;6640878;89;20164;-79
2024/04/08 21:24:19;;;;;;;;;;;20.60;99.90;;;;;;6639156;88;20088;-80
2024/04/08 21:34:19;;;;;;;;;;;20.50;99.90;;;;;;6639779;88;20053;-79
2024/04/08 21:44:20;;;;;;;;;;;20.60;98.60;;;;;;6641492;88;20069;-81
2024/04/08 21:54:20;;;;;;;;;;;21.00;96.30;;;;;;6637261;89;20139;-79
2024/04/08 22:04:21;;;;;;;;;;;21.30;95.60;;;;;;6646631;89;20035;-81
2024/04/08 22:14:21;;;;;;;;;;;21.10;95.90;;;;;;6648798;89;20591;-80
2024/04/08 22:24:22;;;;;;;;;;;20.90;95.80;;;;;;6642359;89;20065;-81
2024/04/08 22:34:22;;;;;;;;;;;21.20;95.20;;;;;;6633879;89;20509;-80
2024/04/08 22:44:23;;;;;;;;;;;21.10;95.10;;;;;;6635712;89;20804;-78
2024/04/08 22:54:23;;;;;;;;;;;21.20;94.80;;;;;;6636981;89;20050;-80
2024/04/08 23:04:24;;;;;;;;;;;21.20;94.50;;;;;;6644600;89;20058;-79
2024/04/08 23:14:24;;;;;;;;;;;20.90;95.30;;;;;;6636837;89;20070;-79
2024/04/08 23:24:24;;;;;;;;;;;20.70;95.60;;;;;;6653819;88;20091;-79
2024/04/08 23:34:25;;;;;;;;;;;20.60;95.80;;;;;;6636563;89;20083;-79
2024/04/08 23:44:25;;;;;;;;;;;20.60;96.10;;;;;;6637474;89;20262;-78
2024/04/08 23:54:26;;;;;;;;;;;20.50;96.10;;;;;;6638195;89;20093;-78
